createdAt,value
2023-07-18T00:02:23.024Z,15.43
2023-07-18T00:04:50.654Z,15.32
2023-07-18T00:07:17.923Z,15.28
2023-07-18T00:09:45.581Z,15.23
2023-07-18T00:12:14.906Z,15.25
2023-07-18T00:14:43.426Z,15.18
2023-07-18T00:17:15.983Z,15.09
2023-07-18T00:19:43.281Z,15.03
2023-07-18T00:22:10.953Z,14.99
2023-07-18T00:24:38.425Z,14.91
2023-07-18T00:27:06.573Z,14.91
2023-07-18T00:29:35.629Z,14.82
2023-07-18T00:32:03.949Z,14.74
2023-07-18T00:34:31.604Z,14.66
2023-07-18T00:36:59.183Z,14.66
2023-07-18T00:39:27.285Z,14.65
2023-07-18T00:41:54.859Z,14.65
2023-07-18T00:44:22.405Z,14.70
2023-07-18T00:46:52.304Z,14.57
2023-07-18T00:49:22.793Z,14.49
2023-07-18T00:51:50.788Z,14.48
2023-07-18T00:54:18.951Z,14.46
2023-07-18T00:56:46.748Z,14.44
2023-07-18T00:59:17.399Z,14.46
2023-07-18T01:01:46.492Z,14.38
2023-07-18T01:04:16.812Z,14.27
2023-07-18T01:06:45.924Z,14.23
2023-07-18T01:09:14.672Z,14.11
2023-07-18T01:11:43.392Z,14.05
2023-07-18T01:14:10.980Z,14.02
2023-07-18T01:16:38.596Z,14.00
2023-07-18T01:19:06.046Z,14.07
2023-07-18T01:21:34.919Z,14.00
2023-07-18T01:24:04.786Z,13.87
2023-07-18T01:26:32.416Z,13.76
2023-07-18T01:28:59.810Z,13.71
2023-07-18T01:31:27.527Z,13.68
2023-07-18T01:33:55.167Z,13.71
2023-07-18T01:36:22.506Z,13.70
2023-07-18T01:38:52.291Z,13.73
2023-07-18T01:41:21.546Z,13.72
2023-07-18T01:43:49.127Z,13.69
2023-07-18T01:46:17.216Z,13.61
2023-07-18T01:48:44.497Z,13.55
2023-07-18T01:51:11.891Z,13.50
2023-07-18T01:53:39.932Z,13.41
2023-07-18T01:56:08.661Z,13.54
2023-07-18T01:58:36.594Z,13.57
2023-07-18T02:01:04.002Z,13.54
2023-07-18T02:03:31.927Z,13.53
2023-07-18T02:05:59.190Z,13.51
2023-07-18T02:08:28.154Z,13.39
2023-07-18T02:10:55.842Z,13.25
2023-07-18T02:13:24.888Z,13.16
2023-07-18T02:15:52.464Z,13.11
2023-07-18T02:18:20.109Z,13.06
2023-07-18T02:20:47.454Z,13.03
2023-07-18T02:23:14.805Z,13.07
2023-07-18T02:25:42.866Z,13.12
2023-07-18T02:28:10.224Z,13.18
2023-07-18T02:30:50.135Z,13.21
2023-07-18T02:33:17.586Z,13.21
2023-07-18T02:35:49.159Z,13.13
2023-07-18T02:38:17.082Z,13.07
2023-07-18T02:40:44.772Z,13.08
2023-07-18T02:43:12.082Z,13.06
2023-07-18T02:45:43.281Z,13.03
2023-07-18T02:48:10.654Z,13.06
2023-07-18T02:50:38.278Z,13.14
2023-07-18T02:53:05.647Z,13.10
2023-07-18T02:55:33.551Z,13.08
2023-07-18T02:58:01.150Z,12.98
2023-07-18T03:00:28.491Z,12.98
2023-07-18T03:02:57.706Z,12.93
2023-07-18T03:05:27.497Z,13.12
2023-07-18T03:07:55.020Z,13.07
2023-07-18T03:10:23.260Z,13.03
2023-07-18T03:15:31.765Z,12.83
2023-07-18T03:18:03.695Z,12.89
2023-07-18T03:20:31.383Z,12.83
2023-07-18T03:23:00.588Z,12.72
2023-07-18T03:25:28.104Z,12.59
2023-07-18T03:27:55.633Z,12.51
2023-07-18T03:30:23.821Z,12.52
2023-07-18T03:32:51.837Z,12.47
2023-07-18T03:35:20.651Z,12.61
2023-07-18T03:37:47.869Z,12.61
2023-07-18T03:40:15.550Z,12.66
2023-07-18T03:42:43.286Z,12.58
2023-07-18T03:45:12.413Z,12.60
2023-07-18T03:47:40.402Z,12.57
2023-07-18T03:50:09.500Z,12.53
2023-07-18T03:52:38.775Z,12.51
2023-07-18T03:55:07.330Z,12.51
2023-07-18T03:57:36.707Z,12.56
2023-07-18T04:00:06.871Z,12.67
2023-07-18T04:02:34.486Z,12.62
2023-07-18T04:05:01.935Z,12.63
2023-07-18T04:07:29.631Z,12.67
2023-07-18T04:09:58.449Z,12.74
2023-07-18T04:12:26.019Z,12.82
2023-07-18T04:14:53.399Z,12.81
2023-07-18T04:17:21.037Z,12.85
2023-07-18T04:19:48.491Z,12.84
2023-07-18T04:22:15.950Z,12.96
2023-07-18T04:24:43.586Z,12.94
2023-07-18T04:27:13.427Z,13.00
2023-07-18T04:29:40.756Z,13.06
2023-07-18T04:32:08.981Z,13.15
2023-07-18T04:34:36.670Z,13.18
2023-07-18T04:37:05.155Z,13.24
2023-07-18T04:39:32.542Z,13.25
2023-07-18T04:41:59.824Z,13.30
2023-07-18T04:44:36.989Z,13.40
2023-07-18T04:47:06.740Z,13.54
2023-07-18T04:49:34.117Z,13.62
2023-07-18T04:52:02.055Z,13.69
2023-07-18T04:54:30.135Z,13.72
2023-07-18T04:56:57.457Z,13.73
2023-07-18T04:59:25.028Z,13.86
2023-07-18T05:01:55.046Z,14.02
2023-07-18T05:04:23.079Z,14.07
2023-07-18T05:06:50.663Z,14.16
2023-07-18T05:09:18.442Z,14.26
2023-07-18T05:11:47.781Z,14.43
2023-07-18T05:14:15.500Z,14.65
2023-07-18T05:16:43.840Z,14.66
2023-07-18T05:19:14.379Z,14.90
2023-07-18T05:21:41.991Z,14.88
2023-07-18T05:24:09.549Z,14.99
2023-07-18T05:26:37.252Z,15.11
2023-07-18T05:29:04.942Z,15.12
2023-07-18T05:31:33.412Z,15.17
2023-07-18T05:34:00.779Z,15.17
2023-07-18T05:36:29.849Z,15.21
2023-07-18T05:38:57.195Z,15.12
2023-07-18T05:41:25.306Z,15.25
2023-07-18T05:43:53.022Z,15.43
2023-07-18T05:46:21.317Z,15.57
2023-07-18T05:48:48.778Z,15.82
2023-07-18T05:51:17.424Z,15.99
2023-07-18T05:53:51.903Z,15.96
2023-07-18T05:56:19.609Z,16.10
2023-07-18T05:58:47.272Z,16.15
2023-07-18T06:01:14.721Z,16.24
2023-07-18T06:03:49.867Z,16.18
2023-07-18T06:06:17.607Z,16.47
2023-07-18T06:08:46.474Z,16.61
2023-07-18T06:11:15.535Z,16.84
2023-07-18T06:13:43.911Z,16.92
2023-07-18T06:16:11.603Z,16.84
2023-07-18T06:18:39.009Z,16.91
2023-07-18T06:21:06.251Z,16.81
2023-07-18T06:23:33.605Z,16.84
2023-07-18T06:26:02.317Z,16.96
2023-07-18T06:28:29.912Z,16.94
2023-07-18T06:30:58.933Z,17.14
2023-07-18T06:33:26.532Z,17.32
2023-07-18T06:35:54.512Z,17.55
2023-07-18T06:38:21.994Z,17.78
2023-07-18T06:40:50.439Z,17.70
2023-07-18T06:43:19.802Z,17.96
2023-07-18T06:45:48.808Z,17.97
2023-07-18T06:48:17.829Z,18.13
2023-07-18T06:50:46.048Z,18.10
2023-07-18T06:55:55.221Z,18.22
2023-07-18T06:58:24.052Z,18.51
2023-07-18T07:00:57.158Z,18.90
2023-07-18T07:03:25.788Z,18.96
2023-07-18T07:05:55.665Z,18.93
2023-07-18T07:08:23.329Z,18.91
2023-07-18T07:10:50.510Z,18.81
2023-07-18T07:13:18.011Z,18.79
2023-07-18T07:15:47.167Z,18.90
2023-07-18T07:18:14.561Z,18.79
2023-07-18T07:20:41.981Z,19.07
2023-07-18T07:23:09.397Z,19.25
2023-07-18T07:25:36.987Z,19.20
2023-07-18T07:28:05.017Z,19.11
2023-07-18T07:30:32.478Z,19.12
2023-07-18T07:33:01.370Z,19.20
2023-07-18T07:35:28.767Z,19.19
2023-07-18T07:37:56.762Z,19.14
2023-07-18T07:40:24.521Z,19.11
2023-07-18T07:42:52.107Z,19.20
2023-07-18T07:45:19.846Z,19.19
2023-07-18T07:47:47.824Z,19.27
2023-07-18T07:50:16.817Z,19.44
2023-07-18T07:52:44.126Z,19.48
2023-07-18T07:55:15.791Z,19.42
2023-07-18T07:57:43.897Z,19.81
2023-07-18T08:00:12.794Z,19.91
2023-07-18T08:02:42.097Z,19.93
2023-07-18T08:05:09.725Z,19.77
2023-07-18T08:07:39.278Z,19.86
2023-07-18T08:10:07.429Z,19.83
2023-07-18T08:12:34.704Z,19.96
2023-07-18T08:15:02.120Z,19.98
2023-07-18T08:17:32.241Z,19.99
2023-07-18T08:20:00.404Z,19.92
2023-07-18T08:22:28.879Z,20.14
2023-07-18T08:24:57.843Z,20.47
2023-07-18T08:27:25.104Z,20.82
2023-07-18T08:29:52.514Z,21.15
2023-07-18T08:32:19.945Z,21.30
2023-07-18T08:34:47.543Z,20.91
2023-07-18T08:37:16.952Z,20.77
2023-07-18T08:39:44.145Z,21.05
2023-07-18T08:42:14.809Z,20.61
2023-07-18T08:44:43.722Z,20.47
2023-07-18T08:47:12.956Z,20.92
2023-07-18T08:49:41.458Z,22.10
2023-07-18T08:52:09.173Z,23.24
2023-07-18T08:54:36.720Z,24.37
2023-07-18T08:57:05.101Z,25.82
2023-07-18T08:59:34.240Z,25.83
2023-07-18T09:02:01.848Z,25.89
2023-07-18T09:04:30.020Z,25.33
2023-07-18T09:07:00.567Z,24.00
2023-07-18T09:09:28.564Z,23.23
2023-07-18T09:12:01.817Z,22.78
2023-07-18T09:14:35.582Z,23.25
2023-07-18T09:17:06.162Z,22.75
2023-07-18T09:19:37.935Z,23.91
2023-07-18T09:22:07.104Z,23.84
2023-07-18T09:24:35.129Z,23.88
2023-07-18T09:27:03.157Z,22.69
2023-07-18T09:29:30.513Z,22.86
2023-07-18T09:32:00.152Z,23.96
2023-07-18T09:34:28.603Z,24.68
2023-07-18T09:36:57.594Z,25.07
2023-07-18T09:39:26.271Z,25.73
2023-07-18T09:41:54.276Z,25.60
2023-07-18T09:44:32.542Z,25.26
2023-07-18T09:47:02.792Z,25.27
2023-07-18T09:49:34.003Z,25.53
2023-07-18T09:52:08.166Z,25.30
2023-07-18T09:54:35.633Z,25.72
2023-07-18T09:57:05.560Z,25.69
2023-07-18T09:59:36.402Z,26.29
2023-07-18T10:02:06.623Z,25.96
2023-07-18T10:04:34.688Z,26.64
2023-07-18T10:07:03.340Z,27.21
2023-07-18T10:09:33.172Z,26.61
2023-07-18T10:12:11.683Z,27.47
2023-07-18T10:14:51.210Z,26.91
2023-07-18T10:17:40.513Z,25.81
2023-07-18T10:20:12.800Z,25.69
2023-07-18T10:22:47.738Z,25.26
2023-07-18T10:25:20.379Z,25.31
2023-07-18T10:27:49.387Z,25.67
2023-07-18T10:30:18.766Z,25.84
2023-07-18T10:32:54.834Z,26.55
2023-07-18T10:35:23.701Z,26.51
2023-07-18T10:37:53.461Z,26.34
2023-07-18T10:40:35.738Z,26.06
2023-07-18T10:43:03.456Z,26.33
2023-07-18T10:45:40.041Z,26.86
2023-07-18T10:48:29.386Z,27.20
2023-07-18T10:50:57.037Z,27.12
2023-07-18T10:53:25.420Z,27.75
2023-07-18T10:55:53.946Z,28.51
2023-07-18T10:58:22.228Z,28.81
2023-07-18T11:00:51.375Z,27.48
2023-07-18T11:03:21.598Z,25.26
2023-07-18T11:05:51.676Z,23.55
2023-07-18T11:08:25.980Z,24.63
2023-07-18T11:10:58.714Z,26.06
2023-07-18T11:13:29.985Z,26.52
2023-07-18T11:15:58.330Z,25.48
2023-07-18T11:18:26.768Z,24.95
2023-07-18T11:20:56.991Z,25.90
2023-07-18T11:23:25.038Z,26.42
2023-07-18T11:25:53.162Z,26.65
2023-07-18T11:28:20.749Z,27.19
2023-07-18T11:30:48.963Z,27.80
2023-07-18T11:33:16.640Z,27.93
2023-07-18T11:35:49.163Z,28.12
2023-07-18T11:38:19.161Z,27.00
2023-07-18T11:40:46.780Z,28.14
2023-07-18T11:43:18.537Z,28.29
2023-07-18T11:45:45.971Z,27.34
2023-07-18T11:48:14.311Z,25.81
2023-07-18T11:50:44.223Z,26.48
2023-07-18T11:53:14.000Z,26.46
2023-07-18T11:55:43.063Z,27.28
2023-07-18T11:58:10.367Z,26.28
2023-07-18T12:00:38.217Z,26.46
2023-07-18T12:03:06.721Z,26.02
2023-07-18T12:05:34.436Z,26.00
2023-07-18T12:08:02.024Z,26.36
2023-07-18T12:10:29.698Z,26.89
2023-07-18T12:12:58.960Z,27.93
2023-07-18T12:15:26.288Z,27.25
2023-07-18T12:17:54.158Z,25.88
2023-07-18T12:20:21.385Z,25.07
2023-07-18T12:22:48.980Z,24.79
2023-07-18T12:25:16.722Z,24.71
2023-07-18T12:27:44.058Z,24.00
2023-07-18T12:30:13.918Z,23.71
2023-07-18T12:35:22.653Z,24.05
2023-07-18T12:37:50.030Z,23.76
2023-07-18T12:40:17.986Z,23.49
2023-07-18T12:42:45.913Z,23.63
2023-07-18T12:45:15.975Z,24.79
2023-07-18T12:47:43.305Z,25.39
2023-07-18T12:50:12.688Z,24.97
2023-07-18T12:52:40.374Z,24.95
2023-07-18T12:55:08.868Z,25.23
2023-07-18T12:57:37.958Z,25.58
2023-07-18T13:00:07.044Z,26.50
2023-07-18T13:02:37.366Z,26.07
2023-07-18T13:05:05.261Z,25.09
2023-07-18T13:07:34.197Z,25.08
2023-07-18T13:10:01.925Z,25.45
2023-07-18T13:12:30.594Z,26.12
2023-07-18T13:14:58.267Z,27.25
2023-07-18T13:17:26.063Z,27.57
2023-07-18T13:19:55.841Z,27.66
2023-07-18T13:22:23.441Z,27.97
2023-07-18T13:24:50.988Z,28.59
2023-07-18T13:27:18.579Z,28.94
2023-07-18T13:29:45.835Z,29.37
2023-07-18T13:32:14.755Z,29.31
2023-07-18T13:34:44.668Z,28.85
2023-07-18T13:37:15.348Z,28.63
2023-07-18T13:39:43.515Z,27.25
2023-07-18T13:42:10.962Z,26.08
2023-07-18T13:44:39.454Z,25.60
2023-07-18T13:47:07.364Z,25.71
2023-07-18T13:52:06.018Z,25.50
2023-07-18T13:54:36.166Z,26.25
2023-07-18T13:57:05.361Z,26.54
2023-07-18T13:59:33.039Z,26.62
2023-07-18T14:02:00.473Z,26.52
2023-07-18T14:04:27.932Z,26.58
2023-07-18T14:06:55.356Z,26.15
2023-07-18T14:09:22.790Z,26.07
2023-07-18T14:11:52.154Z,26.02
2023-07-18T14:14:21.281Z,25.71
2023-07-18T14:16:49.221Z,24.99
2023-07-18T14:19:17.270Z,24.83
2023-07-18T14:21:53.095Z,25.15
2023-07-18T14:24:22.218Z,25.50
2023-07-18T14:26:52.756Z,25.59
2023-07-18T14:29:20.447Z,25.30
2023-07-18T14:31:48.175Z,24.89
2023-07-18T14:34:15.685Z,24.83
2023-07-18T14:36:43.283Z,24.74
2023-07-18T14:39:10.948Z,24.50
2023-07-18T14:41:39.204Z,24.47
2023-07-18T14:44:08.485Z,24.13
2023-07-18T14:46:36.171Z,24.02
2023-07-18T14:49:03.905Z,24.55
2023-07-18T14:51:32.954Z,24.98
2023-07-18T14:54:00.560Z,24.94
2023-07-18T14:56:28.213Z,25.22
2023-07-18T14:58:55.790Z,25.12
2023-07-18T15:01:24.844Z,24.80
2023-07-18T15:03:52.639Z,24.68
2023-07-18T15:06:20.691Z,24.28
2023-07-18T15:08:52.138Z,24.15
2023-07-18T15:11:23.564Z,24.15
2023-07-18T15:13:51.496Z,24.42
2023-07-18T15:16:19.891Z,24.58
2023-07-18T15:18:49.902Z,24.75
2023-07-18T15:21:17.596Z,24.88
2023-07-18T15:23:45.050Z,24.94
2023-07-18T15:26:13.446Z,25.03
2023-07-18T15:28:40.766Z,24.98
2023-07-18T15:31:08.025Z,24.96
2023-07-18T15:33:35.623Z,24.85
2023-07-18T15:36:05.968Z,24.77
2023-07-18T15:38:33.761Z,24.82
2023-07-18T15:41:01.091Z,24.88
2023-07-18T15:43:28.758Z,24.84
2023-07-18T15:45:56.940Z,24.80
2023-07-18T15:48:25.108Z,24.73
2023-07-18T15:50:53.046Z,24.90
2023-07-18T15:53:22.697Z,24.93
2023-07-18T15:55:51.195Z,24.74
2023-07-18T15:58:20.179Z,24.52
2023-07-18T16:00:48.226Z,24.47
2023-07-18T16:03:15.969Z,24.42
2023-07-18T16:05:44.666Z,24.46
2023-07-18T16:08:12.397Z,24.51
2023-07-18T16:10:41.367Z,24.58
2023-07-18T16:13:10.437Z,24.50
2023-07-18T16:15:38.269Z,24.67
2023-07-18T16:18:06.016Z,24.79
2023-07-18T16:20:33.549Z,24.65
2023-07-18T16:23:01.166Z,24.55
2023-07-18T16:25:28.762Z,24.62
2023-07-18T16:27:57.937Z,24.49
2023-07-18T16:30:25.714Z,24.49
2023-07-18T16:32:53.188Z,24.42
2023-07-18T16:35:20.856Z,24.18
2023-07-18T16:37:49.008Z,23.98
2023-07-18T16:40:16.434Z,23.97
2023-07-18T16:42:43.901Z,23.91
2023-07-18T16:45:13.305Z,23.83
2023-07-18T16:47:41.021Z,23.97
2023-07-18T16:50:09.304Z,23.94
2023-07-18T16:52:36.906Z,23.73
2023-07-18T16:55:05.493Z,23.75
2023-07-18T16:57:32.800Z,23.79
2023-07-18T17:00:00.332Z,23.66
2023-07-18T17:02:29.618Z,23.40
2023-07-18T17:04:58.577Z,23.39
2023-07-18T17:07:25.975Z,23.15
2023-07-18T17:09:53.272Z,23.01
2023-07-18T17:12:20.683Z,22.98
2023-07-18T17:14:48.257Z,22.78
2023-07-18T17:17:15.777Z,22.70
2023-07-18T17:19:58.926Z,22.70
2023-07-18T17:22:35.435Z,22.73
2023-07-18T17:25:06.672Z,22.57
2023-07-18T17:27:34.263Z,22.49
2023-07-18T17:30:01.955Z,22.47
2023-07-18T17:32:29.603Z,22.54
2023-07-18T17:34:58.614Z,22.45
2023-07-18T17:37:26.222Z,22.37
2023-07-18T17:42:34.984Z,22.45
2023-07-18T17:45:02.684Z,22.51
2023-07-18T17:47:30.100Z,22.59
2023-07-18T17:50:06.944Z,22.58
2023-07-18T17:52:34.993Z,22.58
2023-07-18T17:55:02.360Z,22.56
2023-07-18T17:57:29.663Z,22.55
2023-07-18T17:59:57.005Z,22.52
2023-07-18T18:02:25.192Z,22.49
2023-07-18T18:04:57.103Z,22.45
2023-07-18T18:07:27.474Z,22.36
2023-07-18T18:09:55.698Z,22.28
2023-07-18T18:12:22.993Z,22.31
2023-07-18T18:14:51.231Z,22.18
2023-07-18T18:17:19.329Z,22.08
2023-07-18T18:19:47.885Z,22.11
2023-07-18T18:22:15.531Z,21.98
2023-07-18T18:24:44.880Z,21.92
2023-07-18T18:27:12.536Z,21.82
2023-07-18T18:29:40.965Z,21.74
2023-07-18T18:32:09.267Z,21.66
2023-07-18T18:34:36.939Z,21.60
2023-07-18T18:37:06.459Z,21.45
2023-07-18T18:39:41.525Z,21.37
2023-07-18T18:42:30.216Z,21.31
2023-07-18T18:44:57.582Z,21.20
2023-07-18T18:47:25.598Z,21.03
2023-07-18T18:49:53.059Z,20.91
2023-07-18T18:52:20.796Z,20.95
2023-07-18T18:54:58.679Z,20.96
2023-07-18T18:57:37.450Z,20.81
2023-07-18T19:00:05.714Z,20.54
2023-07-18T19:02:33.661Z,20.41
2023-07-18T19:05:01.626Z,20.28
2023-07-18T19:07:29.080Z,20.18
2023-07-18T19:09:57.215Z,20.07
2023-07-18T19:12:24.889Z,19.94
2023-07-18T19:14:57.149Z,19.90
2023-07-18T19:17:26.342Z,19.86
2023-07-18T19:19:54.592Z,19.79
2023-07-18T19:22:22.242Z,19.77
2023-07-18T19:24:49.598Z,19.68
2023-07-18T19:27:16.958Z,19.54
2023-07-18T19:29:44.392Z,19.46
2023-07-18T19:32:17.152Z,19.37
2023-07-18T19:34:44.523Z,19.21
2023-07-18T19:37:14.082Z,19.09
2023-07-18T19:42:26.570Z,18.96
2023-07-18T19:44:54.039Z,18.86
2023-07-18T19:47:23.320Z,18.82
2023-07-18T19:49:50.948Z,18.83
2023-07-18T19:52:18.198Z,18.76
2023-07-18T19:54:46.204Z,18.67
2023-07-18T19:57:13.799Z,18.69
2023-07-18T19:59:42.791Z,18.57
2023-07-18T20:04:53.067Z,18.34
2023-07-18T20:07:21.008Z,18.21
2023-07-18T20:09:48.663Z,18.15
2023-07-18T20:12:16.576Z,18.06
2023-07-18T20:14:45.486Z,18.12
2023-07-18T20:17:12.914Z,18.04
2023-07-18T20:19:40.340Z,17.93
2023-07-18T20:22:10.108Z,17.93
2023-07-18T20:27:19.242Z,17.64
2023-07-18T20:29:46.852Z,17.49
2023-07-18T20:32:14.677Z,17.26
2023-07-18T20:34:42.328Z,17.25
2023-07-18T20:37:13.124Z,17.38
2023-07-18T20:42:29.724Z,17.33
2023-07-18T20:47:42.266Z,17.20
2023-07-18T21:06:08.427Z,16.71
2023-07-18T21:12:25.165Z,16.90
2023-07-18T21:20:22.669Z,16.61
2023-07-18T21:31:11.056Z,16.29
2023-07-18T21:33:43.052Z,16.10
2023-07-18T21:36:10.429Z,16.32
2023-07-18T21:38:38.882Z,16.12
2023-07-18T21:41:07.305Z,16.02
2023-07-18T21:43:42.710Z,16.02
2023-07-18T21:46:14.001Z,15.99
2023-07-18T21:48:41.866Z,16.01
2023-07-18T21:51:10.917Z,15.89
2023-07-18T21:53:39.075Z,15.84
2023-07-18T21:56:07.362Z,15.80
2023-07-18T21:58:36.441Z,15.82
2023-07-18T22:01:03.978Z,15.95
2023-07-18T22:03:56.029Z,15.83
2023-07-18T22:06:26.752Z,15.66
2023-07-18T22:08:54.410Z,15.75
2023-07-18T22:11:22.091Z,15.85
2023-07-18T22:13:50.895Z,15.77
2023-07-18T22:16:18.521Z,15.54
2023-07-18T22:18:46.111Z,15.72
2023-07-18T22:21:19.110Z,15.41
2023-07-18T22:23:47.765Z,15.29
2023-07-18T22:26:15.929Z,15.42
2023-07-18T22:28:43.567Z,15.26
2023-07-18T22:31:12.279Z,15.17
2023-07-18T22:33:40.383Z,15.10
2023-07-18T22:36:07.816Z,15.04
2023-07-18T22:38:37.345Z,14.94
2023-07-18T22:41:04.954Z,14.85
2023-07-18T22:43:32.587Z,14.76
2023-07-18T22:46:00.265Z,14.68
2023-07-18T22:48:29.399Z,14.77
2023-07-18T22:50:57.133Z,14.70
2023-07-18T22:53:24.616Z,14.62
2023-07-18T22:55:54.455Z,14.61
2023-07-18T22:58:29.567Z,14.50
2023-07-18T23:00:57.827Z,14.58
2023-07-18T23:03:29.352Z,14.75
2023-07-18T23:05:57.012Z,14.77
2023-07-18T23:08:29.708Z,14.67
2023-07-18T23:11:01.580Z,14.69
2023-07-18T23:13:36.583Z,14.53
2023-07-18T23:16:04.626Z,14.37
2023-07-18T23:18:31.993Z,14.29
2023-07-18T23:20:59.349Z,14.25
2023-07-18T23:23:27.055Z,14.33
2023-07-18T23:25:54.808Z,14.39
2023-07-18T23:28:39.065Z,14.80
2023-07-18T23:31:06.784Z,14.89
2023-07-18T23:33:34.926Z,14.75
2023-07-18T23:36:02.665Z,14.60
2023-07-18T23:38:30.022Z,14.68
2023-07-18T23:40:59.146Z,14.75
2023-07-18T23:43:27.232Z,14.82
2023-07-18T23:45:57.139Z,14.89
2023-07-18T23:48:24.520Z,14.64
2023-07-18T23:50:52.174Z,14.52
2023-07-18T23:53:20.293Z,14.47
2023-07-18T23:55:48.503Z,14.36
2023-07-18T23:58:16.135Z,14.34
